sensor_id;sensor_type;location;lat;lon;timestamp;pressure;altitude;pressure_sealevel;temperature;humidity
80837;BME280;70251;60.008;30.404;2023-06-19T00:00:17;101516.25;;;17.54;48.02
80837;BME280;70251;60.008;30.404;2023-06-19T00:02:43;101517.84;;;17.65;47.83
80837;BME280;70251;60.008;30.404;2023-06-19T00:05:09;101514.31;;;17.72;48.03
80837;BME280;70251;60.008;30.404;2023-06-19T00:07:38;101521.47;;;17.81;48.15
80837;BME280;70251;60.008;30.404;2023-06-19T00:10:04;101514.22;;;17.82;48.11
80837;BME280;70251;60.008;30.404;2023-06-19T00:12:30;101521.28;;;17.83;48.01
80837;BME280;70251;60.008;30.404;2023-06-19T00:14:55;101516.56;;;17.85;48.14
80837;BME280;70251;60.008;30.404;2023-06-19T00:17:21;101520.97;;;17.86;48.20
80837;BME280;70251;60.008;30.404;2023-06-19T00:19:52;101509.84;;;17.89;48.16
80837;BME280;70251;60.008;30.404;2023-06-19T00:22:18;101516.78;;;17.92;48.08
80837;BME280;70251;60.008;30.404;2023-06-19T00:24:44;101514.75;;;17.94;48.29
80837;BME280;70251;60.008;30.404;2023-06-19T00:27:09;101518.13;;;17.96;48.18
80837;BME280;70251;60.008;30.404;2023-06-19T00:29:34;101514.75;;;17.94;48.23
80837;BME280;70251;60.008;30.404;2023-06-19T00:32:00;101512.91;;;17.94;48.47
80837;BME280;70251;60.008;30.404;2023-06-19T00:34:26;101507.34;;;17.96;48.55
80837;BME280;70251;60.008;30.404;2023-06-19T00:36:52;101509.91;;;17.97;48.53
80837;BME280;70251;60.008;30.404;2023-06-19T00:39:23;101507.53;;;18.02;48.51
80837;BME280;70251;60.008;30.404;2023-06-19T00:41:54;101504.34;;;18.07;49.00
80837;BME280;70251;60.008;30.404;2023-06-19T00:44:20;101501.13;;;18.03;48.41
80837;BME280;70251;60.008;30.404;2023-06-19T00:46:46;101503.66;;;18.05;48.62
80837;BME280;70251;60.008;30.404;2023-06-19T00:49:13;101501.81;;;18.05;48.61
80837;BME280;70251;60.008;30.404;2023-06-19T00:51:40;101505.19;;;18.07;48.57
80837;BME280;70251;60.008;30.404;2023-06-19T00:54:05;101512.44;;;18.07;48.53
80837;BME280;70251;60.008;30.404;2023-06-19T00:56:32;101507.03;;;18.07;48.75
80837;BME280;70251;60.008;30.404;2023-06-19T00:59:00;101506.19;;;18.06;48.62
80837;BME280;70251;60.008;30.404;2023-06-19T01:01:27;101507.03;;;18.07;48.48
80837;BME280;70251;60.008;30.404;2023-06-19T01:03:53;101511.75;;;18.05;48.68
80837;BME280;70251;60.008;30.404;2023-06-19T01:06:28;101497.59;;;18.11;49.47
80837;BME280;70251;60.008;30.404;2023-06-19T01:09:08;101499.13;;;18.13;49.02
80837;BME280;70251;60.008;30.404;2023-06-19T01:11:41;101501.31;;;18.10;49.05
80837;BME280;70251;60.008;30.404;2023-06-19T01:14:14;101493.22;;;18.10;49.55
80837;BME280;70251;60.008;30.404;2023-06-19T01:16:41;101497.94;;;18.08;48.71
80837;BME280;70251;60.008;30.404;2023-06-19T01:19:10;101502.00;;;18.12;49.00
80837;BME280;70251;60.008;30.404;2023-06-19T01:21:36;101503.84;;;18.11;48.90
80837;BME280;70251;60.008;30.404;2023-06-19T01:24:02;101505.53;;;18.12;49.01
80837;BME280;70251;60.008;30.404;2023-06-19T01:26:27;101505.72;;;18.19;48.81
80837;BME280;70251;60.008;30.404;2023-06-19T01:28:53;101511.81;;;18.21;48.66
80837;BME280;70251;60.008;30.404;2023-06-19T01:31:37;101497.66;;;18.27;49.57
80837;BME280;70251;60.008;30.404;2023-06-19T01:34:06;101501.53;;;18.24;48.59
80837;BME280;70251;60.008;30.404;2023-06-19T01:36:32;101499.69;;;18.25;48.56
80837;BME280;70251;60.008;30.404;2023-06-19T01:38:58;101497.63;;;18.19;48.53
80837;BME280;70251;60.008;30.404;2023-06-19T01:41:25;101490.84;;;18.15;48.81
80837;BME280;70251;60.008;30.404;2023-06-19T01:43:52;101495.75;;;18.11;48.83
80837;BME280;70251;60.008;30.404;2023-06-19T01:46:18;101495.06;;;18.09;49.05
80837;BME280;70251;60.008;30.404;2023-06-19T01:48:44;101489.97;;;18.06;49.15
80837;BME280;70251;60.008;30.404;2023-06-19T01:51:09;101491.53;;;18.09;49.19
80837;BME280;70251;60.008;30.404;2023-06-19T01:53:35;101491.34;;;18.10;49.22
80837;BME280;70251;60.008;30.404;2023-06-19T01:56:01;101497.97;;;18.16;49.27
80837;BME280;70251;60.008;30.404;2023-06-19T01:58:26;101490.06;;;18.22;49.02
80837;BME280;70251;60.008;30.404;2023-06-19T02:00:52;101493.44;;;18.24;49.17
80837;BME280;70251;60.008;30.404;2023-06-19T02:03:17;101494.44;;;18.23;49.02
80837;BME280;70251;60.008;30.404;2023-06-19T02:05:43;101497.78;;;18.17;49.11
80837;BME280;70251;60.008;30.404;2023-06-19T02:08:08;101496.75;;;18.10;48.89
80837;BME280;70251;60.008;30.404;2023-06-19T02:10:34;101501.28;;;18.02;49.07
80837;BME280;70251;60.008;30.404;2023-06-19T02:13:00;101506.53;;;18.03;49.34
80837;BME280;70251;60.008;30.404;2023-06-19T02:15:25;101507.91;;;18.07;49.37
80837;BME280;70251;60.008;30.404;2023-06-19T02:17:51;101500.13;;;18.12;49.44
80837;BME280;70251;60.008;30.404;2023-06-19T02:20:24;101508.78;;;18.16;49.66
80837;BME280;70251;60.008;30.404;2023-06-19T02:22:50;101503.53;;;18.14;49.29
80837;BME280;70251;60.008;30.404;2023-06-19T02:25:16;101505.69;;;18.11;49.42
80837;BME280;70251;60.008;30.404;2023-06-19T02:27:41;101510.25;;;18.10;49.32
80837;BME280;70251;60.008;30.404;2023-06-19T02:30:07;101497.44;;;18.12;49.36
80837;BME280;70251;60.008;30.404;2023-06-19T02:32:33;101502.19;;;18.18;49.50
80837;BME280;70251;60.008;30.404;2023-06-19T02:34:58;101501.72;;;18.23;49.29
80837;BME280;70251;60.008;30.404;2023-06-19T02:37:24;101511.50;;;18.24;49.44
80837;BME280;70251;60.008;30.404;2023-06-19T02:39:49;101504.22;;;18.24;49.36
80837;BME280;70251;60.008;30.404;2023-06-19T02:42:15;101507.13;;;18.23;49.42
80837;BME280;70251;60.008;30.404;2023-06-19T02:44:40;101507.13;;;18.23;49.58
80837;BME280;70251;60.008;30.404;2023-06-19T02:47:09;101498.66;;;18.26;49.69
80837;BME280;70251;60.008;30.404;2023-06-19T02:49:34;101499.03;;;18.31;49.65
80837;BME280;70251;60.008;30.404;2023-06-19T02:52:00;101504.75;;;18.28;49.33
80837;BME280;70251;60.008;30.404;2023-06-19T02:54:26;101500.66;;;18.16;49.51
80837;BME280;70251;60.008;30.404;2023-06-19T02:56:51;101506.38;;;18.05;49.63
80837;BME280;70251;60.008;30.404;2023-06-19T02:59:17;101506.50;;;17.95;50.02
80837;BME280;70251;60.008;30.404;2023-06-19T03:01:51;101506.94;;;17.82;50.24
80837;BME280;70251;60.008;30.404;2023-06-19T03:04:17;101489.81;;;17.66;50.30
80837;BME280;70251;60.008;30.404;2023-06-19T03:06:42;101496.19;;;17.57;50.47
80837;BME280;70251;60.008;30.404;2023-06-19T03:09:08;101494.13;;;17.51;50.77
80837;BME280;70251;60.008;30.404;2023-06-19T03:11:39;101496.00;;;17.50;51.06
80837;BME280;70251;60.008;30.404;2023-06-19T03:14:05;101488.94;;;17.57;50.95
80837;BME280;70251;60.008;30.404;2023-06-19T03:16:35;101490.38;;;17.69;51.12
80837;BME280;70251;60.008;30.404;2023-06-19T03:19:01;101491.41;;;17.84;50.90
80837;BME280;70251;60.008;30.404;2023-06-19T03:21:27;101491.13;;;17.96;50.63
80837;BME280;70251;60.008;30.404;2023-06-19T03:23:52;101491.19;;;18.04;50.24
80837;BME280;70251;60.008;30.404;2023-06-19T03:26:21;101486.78;;;18.11;50.79
80837;BME280;70251;60.008;30.404;2023-06-19T03:28:47;101471.44;;;18.11;50.16
80837;BME280;70251;60.008;30.404;2023-06-19T03:31:13;101481.44;;;18.27;49.95
80837;BME280;70251;60.008;30.404;2023-06-19T03:33:39;101473.53;;;18.33;50.04
80837;BME280;70251;60.008;30.404;2023-06-19T03:36:04;101476.25;;;18.41;49.94
80837;BME280;70251;60.008;30.404;2023-06-19T03:38:31;101479.84;;;18.50;49.86
80837;BME280;70251;60.008;30.404;2023-06-19T03:40:56;101483.03;;;18.53;49.64
80837;BME280;70251;60.008;30.404;2023-06-19T03:43:22;101480.16;;;18.55;49.68
80837;BME280;70251;60.008;30.404;2023-06-19T03:45:47;101479.84;;;18.58;49.66
80837;BME280;70251;60.008;30.404;2023-06-19T03:48:13;101482.91;;;18.63;49.52
80837;BME280;70251;60.008;30.404;2023-06-19T03:50:38;101487.44;;;18.71;49.42
80837;BME280;70251;60.008;30.404;2023-06-19T03:53:04;101486.75;;;18.77;49.16
80837;BME280;70251;60.008;30.404;2023-06-19T03:55:39;101491.34;;;18.84;49.28
80837;BME280;70251;60.008;30.404;2023-06-19T03:58:04;101482.06;;;18.87;49.02
80837;BME280;70251;60.008;30.404;2023-06-19T04:00:31;101473.25;;;18.93;49.13
80837;BME280;70251;60.008;30.404;2023-06-19T04:02:56;101465.31;;;18.99;49.08
80837;BME280;70251;60.008;30.404;2023-06-19T04:05:22;101473.22;;;19.09;48.99
80837;BME280;70251;60.008;30.404;2023-06-19T04:07:47;101470.19;;;19.12;48.69
80837;BME280;70251;60.008;30.404;2023-06-19T04:10:13;101469.16;;;19.13;48.63
80837;BME280;70251;60.008;30.404;2023-06-19T04:12:41;101473.06;;;19.18;48.55
80837;BME280;70251;60.008;30.404;2023-06-19T04:15:08;101477.13;;;19.22;48.39
80837;BME280;70251;60.008;30.404;2023-06-19T04:17:33;101475.38;;;19.29;48.20
80837;BME280;70251;60.008;30.404;2023-06-19T04:19:59;101466.78;;;19.34;47.95
80837;BME280;70251;60.008;30.404;2023-06-19T04:22:24;101457.28;;;19.38;47.93
80837;BME280;70251;60.008;30.404;2023-06-19T04:24:50;101456.97;;;19.41;47.50
80837;BME280;70251;60.008;30.404;2023-06-19T04:27:15;101465.41;;;19.46;47.65
80837;BME280;70251;60.008;30.404;2023-06-19T04:29:41;101457.78;;;19.50;47.43
80837;BME280;70251;60.008;30.404;2023-06-19T04:32:06;101453.88;;;19.52;47.02
80837;BME280;70251;60.008;30.404;2023-06-19T04:34:37;101460.66;;;19.56;46.87
80837;BME280;70251;60.008;30.404;2023-06-19T04:37:03;101465.88;;;19.58;46.89
80837;BME280;70251;60.008;30.404;2023-06-19T04:39:29;101461.97;;;19.60;46.91
80837;BME280;70251;60.008;30.404;2023-06-19T04:41:54;101461.66;;;19.63;46.75
80837;BME280;70251;60.008;30.404;2023-06-19T04:44:19;101459.94;;;19.62;46.65
80837;BME280;70251;60.008;30.404;2023-06-19T04:46:45;101463.69;;;19.61;46.56
80837;BME280;70251;60.008;30.404;2023-06-19T04:49:11;101464.88;;;19.59;46.78
80837;BME280;70251;60.008;30.404;2023-06-19T04:51:40;101454.72;;;19.61;47.08
80837;BME280;70251;60.008;30.404;2023-06-19T04:54:09;101460.09;;;19.69;47.05
80837;BME280;70251;60.008;30.404;2023-06-19T04:56:35;101468.84;;;19.79;46.70
80837;BME280;70251;60.008;30.404;2023-06-19T04:59:03;101457.47;;;19.83;46.83
80837;BME280;70251;60.008;30.404;2023-06-19T05:01:31;101448.63;;;19.89;46.33
80837;BME280;70251;60.008;30.404;2023-06-19T05:03:56;101465.03;;;19.96;46.55
80837;BME280;70251;60.008;30.404;2023-06-19T05:06:25;101451.63;;;20.02;46.69
80837;BME280;70251;60.008;30.404;2023-06-19T05:08:51;101458.50;;;20.13;46.06
80837;BME280;70251;60.008;30.404;2023-06-19T05:11:17;101453.22;;;20.20;46.07
80837;BME280;70251;60.008;30.404;2023-06-19T05:13:43;101451.38;;;20.20;45.93
80837;BME280;70251;60.008;30.404;2023-06-19T05:16:08;101457.47;;;20.22;45.24
80837;BME280;70251;60.008;30.404;2023-06-19T05:18:34;101455.06;;;20.19;44.97
80837;BME280;70251;60.008;30.404;2023-06-19T05:20:59;101452.56;;;20.18;45.09
80837;BME280;70251;60.008;30.404;2023-06-19T05:23:25;101451.38;;;20.20;45.02
80837;BME280;70251;60.008;30.404;2023-06-19T05:25:52;101445.91;;;20.28;45.36
80837;BME280;70251;60.008;30.404;2023-06-19T05:28:18;101450.72;;;20.41;45.29
80837;BME280;70251;60.008;30.404;2023-06-19T05:30:43;101449.66;;;20.50;44.82
80837;BME280;70251;60.008;30.404;2023-06-19T05:33:09;101443.63;;;20.62;44.30
80837;BME280;70251;60.008;30.404;2023-06-19T05:35:42;101444.22;;;20.72;43.90
80837;BME280;70251;60.008;30.404;2023-06-19T05:38:08;101445.19;;;20.79;43.77
80837;BME280;70251;60.008;30.404;2023-06-19T05:40:34;101432.72;;;20.85;43.78
80837;BME280;70251;60.008;30.404;2023-06-19T05:43:02;101432.50;;;20.95;43.57
80837;BME280;70251;60.008;30.404;2023-06-19T05:45:27;101435.31;;;21.01;42.88
80837;BME280;70251;60.008;30.404;2023-06-19T05:47:53;101435.44;;;21.08;42.79
80837;BME280;70251;60.008;30.404;2023-06-19T05:50:18;101442.50;;;21.17;42.75
80837;BME280;70251;60.008;30.404;2023-06-19T05:52:44;101448.00;;;21.23;41.87
80837;BME280;70251;60.008;30.404;2023-06-19T05:55:10;101434.25;;;21.25;41.96
80837;BME280;70251;60.008;30.404;2023-06-19T05:57:36;101438.19;;;21.37;41.54
80837;BME280;70251;60.008;30.404;2023-06-19T06:00:03;101442.69;;;21.44;40.78
80837;BME280;70251;60.008;30.404;2023-06-19T06:02:29;101440.88;;;21.51;41.01
80837;BME280;70251;60.008;30.404;2023-06-19T06:04:55;101436.09;;;21.53;40.42
80837;BME280;70251;60.008;30.404;2023-06-19T06:07:21;101447.72;;;21.62;39.72
80837;BME280;70251;60.008;30.404;2023-06-19T06:09:47;101449.50;;;21.70;39.51
80837;BME280;70251;60.008;30.404;2023-06-19T06:12:14;101444.97;;;21.77;39.04
80837;BME280;70251;60.008;30.404;2023-06-19T06:14:43;101449.72;;;21.83;38.60
80837;BME280;70251;60.008;30.404;2023-06-19T06:17:09;101452.56;;;21.81;38.23
80837;BME280;70251;60.008;30.404;2023-06-19T06:19:35;101456.03;;;21.75;37.31
80837;BME280;70251;60.008;30.404;2023-06-19T06:22:02;101449.59;;;21.76;37.54
80837;BME280;70251;60.008;30.404;2023-06-19T06:24:28;101445.94;;;21.84;37.47
80837;BME280;70251;60.008;30.404;2023-06-19T06:26:53;101442.31;;;21.91;36.77
80837;BME280;70251;60.008;30.404;2023-06-19T06:29:21;101445.91;;;21.98;36.31
80837;BME280;70251;60.008;30.404;2023-06-19T06:31:47;101439.06;;;22.02;36.32
80837;BME280;70251;60.008;30.404;2023-06-19T06:34:13;101441.00;;;22.08;36.83
80837;BME280;70251;60.008;30.404;2023-06-19T06:36:39;101439.63;;;22.12;36.39
80837;BME280;70251;60.008;30.404;2023-06-19T06:39:05;101449.53;;;22.20;36.47
80837;BME280;70251;60.008;30.404;2023-06-19T06:41:31;101438.72;;;22.26;36.42
80837;BME280;70251;60.008;30.404;2023-06-19T06:43:57;101442.38;;;22.33;36.26
80837;BME280;70251;60.008;30.404;2023-06-19T06:46:23;101431.72;;;22.38;36.14
80837;BME280;70251;60.008;30.404;2023-06-19T06:48:49;101431.94;;;22.37;35.95
80837;BME280;70251;60.008;30.404;2023-06-19T06:51:15;101426.13;;;22.40;35.94
80837;BME280;70251;60.008;30.404;2023-06-19T06:53:40;101443.91;;;22.42;36.54
80837;BME280;70251;60.008;30.404;2023-06-19T06:56:06;101440.44;;;22.49;36.18
80837;BME280;70251;60.008;30.404;2023-06-19T06:58:31;101436.06;;;22.54;36.10
80837;BME280;70251;60.008;30.404;2023-06-19T07:00:57;101438.78;;;22.54;35.64
80837;BME280;70251;60.008;30.404;2023-06-19T07:03:22;101436.06;;;22.54;36.24
80837;BME280;70251;60.008;30.404;2023-06-19T07:05:48;101432.50;;;22.54;36.37
80837;BME280;70251;60.008;30.404;2023-06-19T07:08:14;101434.47;;;22.60;36.08
80837;BME280;70251;60.008;30.404;2023-06-19T07:10:42;101424.66;;;22.59;35.72
80837;BME280;70251;60.008;30.404;2023-06-19T07:13:07;101432.66;;;22.67;35.36
80837;BME280;70251;60.008;30.404;2023-06-19T07:15:33;101424.75;;;22.72;35.12
80837;BME280;70251;60.008;30.404;2023-06-19T07:17:58;101434.91;;;22.84;34.89
80837;BME280;70251;60.008;30.404;2023-06-19T07:20:24;101428.25;;;22.87;35.07
80837;BME280;70251;60.008;30.404;2023-06-19T07:22:51;101420.09;;;22.87;34.52
80837;BME280;70251;60.008;30.404;2023-06-19T07:25:18;101421.38;;;22.91;34.52
80837;BME280;70251;60.008;30.404;2023-06-19T07:27:45;101424.13;;;22.97;33.97
80837;BME280;70251;60.008;30.404;2023-06-19T07:30:11;101420.41;;;23.05;34.29
80837;BME280;70251;60.008;30.404;2023-06-19T07:32:37;101414.63;;;23.14;33.21
80837;BME280;70251;60.008;30.404;2023-06-19T07:35:04;101412.59;;;23.23;33.49
80837;BME280;70251;60.008;30.404;2023-06-19T07:37:30;101408.44;;;23.27;33.16
80837;BME280;70251;60.008;30.404;2023-06-19T07:39:56;101407.66;;;23.33;32.54
80837;BME280;70251;60.008;30.404;2023-06-19T07:42:23;101401.78;;;23.36;32.62
80837;BME280;70251;60.008;30.404;2023-06-19T07:44:49;101410.25;;;23.48;32.74
80837;BME280;70251;60.008;30.404;2023-06-19T07:47:16;101407.13;;;23.51;32.78
80837;BME280;70251;60.008;30.404;2023-06-19T07:49:46;101405.28;;;23.64;32.41
80837;BME280;70251;60.008;30.404;2023-06-19T07:52:25;101402.56;;;23.64;31.35
80837;BME280;70251;60.008;30.404;2023-06-19T07:57:59;101402.56;;;23.64;31.59
80837;BME280;70251;60.008;30.404;2023-06-19T08:00:25;101407.84;;;23.72;31.65
80837;BME280;70251;60.008;30.404;2023-06-19T08:02:51;101399.50;;;23.80;31.46
80837;BME280;70251;60.008;30.404;2023-06-19T08:05:17;101388.16;;;23.83;31.25
80837;BME280;70251;60.008;30.404;2023-06-19T08:07:42;101398.72;;;23.93;31.53
80837;BME280;70251;60.008;30.404;2023-06-19T08:10:08;101403.81;;;24.09;31.10
80837;BME280;70251;60.008;30.404;2023-06-19T08:12:34;101408.03;;;24.25;30.92
80837;BME280;70251;60.008;30.404;2023-06-19T08:14:59;101399.69;;;24.39;30.79
80837;BME280;70251;60.008;30.404;2023-06-19T08:17:26;101402.84;;;24.56;31.16
80837;BME280;70251;60.008;30.404;2023-06-19T08:19:51;101400.97;;;24.70;31.08
80837;BME280;70251;60.008;30.404;2023-06-19T08:22:18;101401.81;;;24.70;30.56
80837;BME280;70251;60.008;30.404;2023-06-19T08:24:43;101398.44;;;24.68;30.42
80837;BME280;70251;60.008;30.404;2023-06-19T08:27:09;101395.50;;;24.70;30.34
80837;BME280;70251;60.008;30.404;2023-06-19T08:29:34;101388.19;;;24.77;30.71
80837;BME280;70251;60.008;30.404;2023-06-19T08:32:00;101398.66;;;24.93;30.03
80837;BME280;70251;60.008;30.404;2023-06-19T08:34:27;101391.94;;;25.02;29.72
80837;BME280;70251;60.008;30.404;2023-06-19T08:36:53;101388.53;;;25.19;30.21
80837;BME280;70251;60.008;30.404;2023-06-19T08:39:18;101386.81;;;25.45;29.95
80837;BME280;70251;60.008;30.404;2023-06-19T08:41:45;101386.53;;;25.66;29.49
80837;BME280;70251;60.008;30.404;2023-06-19T08:44:10;101385.66;;;25.72;29.06
80837;BME280;70251;60.008;30.404;2023-06-19T08:46:36;101381.78;;;25.86;28.64
80837;BME280;70251;60.008;30.404;2023-06-19T08:49:03;101384.25;;;26.00;29.15
80837;BME280;70251;60.008;30.404;2023-06-19T08:51:29;101380.63;;;26.13;28.44
80837;BME280;70251;60.008;30.404;2023-06-19T08:54:02;101377.41;;;26.23;28.03
80837;BME280;70251;60.008;30.404;2023-06-19T08:56:29;101388.59;;;26.21;28.22
80837;BME280;70251;60.008;30.404;2023-06-19T08:58:54;101374.81;;;26.34;28.15
80837;BME280;70251;60.008;30.404;2023-06-19T09:01:20;101375.09;;;26.51;28.06
80837;BME280;70251;60.008;30.404;2023-06-19T09:03:46;101377.03;;;26.68;28.15
80837;BME280;70251;60.008;30.404;2023-06-19T09:06:15;101380.25;;;26.90;27.54
80837;BME280;70251;60.008;30.404;2023-06-19T09:08:41;101378.34;;;26.90;27.57
80837;BME280;70251;60.008;30.404;2023-06-19T09:11:07;101374.56;;;26.92;27.60
80837;BME280;70251;60.008;30.404;2023-06-19T09:13:33;101364.22;;;26.94;27.53
80837;BME280;70251;60.008;30.404;2023-06-19T09:16:01;101370.81;;;26.86;27.04
80837;BME280;70251;60.008;30.404;2023-06-19T09:18:32;101365.56;;;26.84;26.92
80837;BME280;70251;60.008;30.404;2023-06-19T09:21:06;101360.81;;;26.98;27.11
80837;BME280;70251;60.008;30.404;2023-06-19T09:23:39;101369.28;;;27.15;27.29
80837;BME280;70251;60.008;30.404;2023-06-19T09:26:05;101354.72;;;27.14;26.66
80837;BME280;70251;60.008;30.404;2023-06-19T09:28:30;101362.09;;;27.14;26.43
80837;BME280;70251;60.008;30.404;2023-06-19T09:31:03;101356.63;;;27.32;26.31
80837;BME280;70251;60.008;30.404;2023-06-19T09:33:31;101352.97;;;27.56;26.67
80837;BME280;70251;60.008;30.404;2023-06-19T09:35:58;101351.75;;;27.70;26.38
80837;BME280;70251;60.008;30.404;2023-06-19T09:38:26;101348.75;;;27.90;26.38
80837;BME280;70251;60.008;30.404;2023-06-19T09:40:52;101355.25;;;28.07;26.11
80837;BME280;70251;60.008;30.404;2023-06-19T09:43:25;101347.69;;;28.20;25.34
80837;BME280;70251;60.008;30.404;2023-06-19T09:45:54;101344.44;;;28.12;25.74
80837;BME280;70251;60.008;30.404;2023-06-19T09:48:28;101340.59;;;28.01;26.16
80837;BME280;70251;60.008;30.404;2023-06-19T09:53:36;101348.47;;;28.09;26.58
80837;BME280;70251;60.008;30.404;2023-06-19T09:56:04;101349.28;;;28.39;25.72
80837;BME280;70251;60.008;30.404;2023-06-19T09:58:30;101344.94;;;28.62;25.57
80837;BME280;70251;60.008;30.404;2023-06-19T10:00:56;101340.25;;;28.74;24.87
80837;BME280;70251;60.008;30.404;2023-06-19T10:03:34;101334.53;;;28.75;24.31
80837;BME280;70251;60.008;30.404;2023-06-19T10:06:00;101337.97;;;28.71;24.76
80837;BME280;70251;60.008;30.404;2023-06-19T10:08:40;101331.31;;;28.90;23.83
80837;BME280;70251;60.008;30.404;2023-06-19T10:11:06;101329.75;;;28.94;24.34
80837;BME280;70251;60.008;30.404;2023-06-19T10:13:36;101333.44;;;29.11;24.70
80837;BME280;70251;60.008;30.404;2023-06-19T10:16:04;101330.81;;;29.28;25.06
80837;BME280;70251;60.008;30.404;2023-06-19T10:18:31;101328.59;;;29.41;24.83
80837;BME280;70251;60.008;30.404;2023-06-19T10:20:57;101333.69;;;29.61;24.75
80837;BME280;70251;60.008;30.404;2023-06-19T10:23:26;101323.88;;;29.76;24.53
80837;BME280;70251;60.008;30.404;2023-06-19T10:28:25;101319.06;;;29.83;24.33
80837;BME280;70251;60.008;30.404;2023-06-19T10:33:30;101311.66;;;29.72;24.11
80837;BME280;70251;60.008;30.404;2023-06-19T10:35:58;101311.53;;;29.79;24.29
80837;BME280;70251;60.008;30.404;2023-06-19T10:38:25;101319.66;;;29.85;24.39
80837;BME280;70251;60.008;30.404;2023-06-19T10:40:51;101310.88;;;29.88;24.16
80837;BME280;70251;60.008;30.404;2023-06-19T10:43:24;101310.09;;;30.05;23.84
80837;BME280;70251;60.008;30.404;2023-06-19T10:45:54;101307.41;;;30.10;24.24
80837;BME280;70251;60.008;30.404;2023-06-19T10:48:21;101310.56;;;30.02;23.91
80837;BME280;70251;60.008;30.404;2023-06-19T10:50:49;101295.31;;;29.94;24.00
80837;BME280;70251;60.008;30.404;2023-06-19T10:55:55;101295.00;;;30.24;23.58
80837;BME280;70251;60.008;30.404;2023-06-19T10:58:20;101288.09;;;30.38;24.11
80837;BME280;70251;60.008;30.404;2023-06-19T11:00:46;101296.47;;;30.43;24.00
80837;BME280;70251;60.008;30.404;2023-06-19T11:03:12;101297.28;;;30.43;24.08
80837;BME280;70251;60.008;30.404;2023-06-19T11:05:43;101287.66;;;30.62;23.96
80837;BME280;70251;60.008;30.404;2023-06-19T11:08:09;101295.25;;;30.72;23.70
80837;BME280;70251;60.008;30.404;2023-06-19T11:10:34;101294.41;;;30.72;23.82
80837;BME280;70251;60.008;30.404;2023-06-19T11:13:00;101287.06;;;30.77;23.91
80837;BME280;70251;60.008;30.404;2023-06-19T11:15:33;101279.22;;;30.86;23.80
80837;BME280;70251;60.008;30.404;2023-06-19T11:18:01;101280.38;;;30.90;23.83
80837;BME280;70251;60.008;30.404;2023-06-19T11:20:27;101279.44;;;30.84;23.90
80837;BME280;70251;60.008;30.404;2023-06-19T11:22:58;101274.19;;;30.83;23.61
80837;BME280;70251;60.008;30.404;2023-06-19T11:25:35;101267.19;;;30.92;23.93
80837;BME280;70251;60.008;30.404;2023-06-19T11:28:00;101268.03;;;30.92;23.87
80837;BME280;70251;60.008;30.404;2023-06-19T11:30:33;101260.34;;;30.94;22.99
80837;BME280;70251;60.008;30.404;2023-06-19T11:32:59;101267.13;;;30.70;23.83
80837;BME280;70251;60.008;30.404;2023-06-19T11:35:32;101253.25;;;30.65;23.93
80837;BME280;70251;60.008;30.404;2023-06-19T11:37:59;101257.47;;;30.51;24.08
80837;BME280;70251;60.008;30.404;2023-06-19T11:40:24;101262.63;;;30.64;23.88
80837;BME280;70251;60.008;30.404;2023-06-19T11:42:53;101263.41;;;30.81;24.08
80837;BME280;70251;60.008;30.404;2023-06-19T11:45:19;101268.34;;;30.79;23.90
80837;BME280;70251;60.008;30.404;2023-06-19T11:47:45;101259.34;;;30.67;23.79
80837;BME280;70251;60.008;30.404;2023-06-19T11:50:12;101250.06;;;30.73;23.69
80837;BME280;70251;60.008;30.404;2023-06-19T11:52:39;101249.28;;;30.78;24.00
80837;BME280;70251;60.008;30.404;2023-06-19T11:55:05;101248.66;;;30.87;23.96
80837;BME280;70251;60.008;30.404;2023-06-19T11:57:31;101251.47;;;30.92;23.78
80837;BME280;70251;60.008;30.404;2023-06-19T11:59:58;101248.31;;;31.05;23.86
80837;BME280;70251;60.008;30.404;2023-06-19T12:02:23;101241.28;;;31.14;23.75
80837;BME280;70251;60.008;30.404;2023-06-19T12:04:49;101228.63;;;31.18;23.71
80837;BME280;70251;60.008;30.404;2023-06-19T12:07:14;101223.03;;;31.35;23.85
80837;BME280;70251;60.008;30.404;2023-06-19T12:09:41;101231.72;;;31.44;23.60
80837;BME280;70251;60.008;30.404;2023-06-19T12:12:10;101232.41;;;31.56;23.75
80837;BME280;70251;60.008;30.404;2023-06-19T12:14:35;101228.19;;;31.75;23.38
80837;BME280;70251;60.008;30.404;2023-06-19T12:17:00;101231.09;;;31.90;23.18
80837;BME280;70251;60.008;30.404;2023-06-19T12:19:26;101235.03;;;31.99;23.11
80837;BME280;70251;60.008;30.404;2023-06-19T12:21:53;101238.63;;;31.99;23.07
80837;BME280;70251;60.008;30.404;2023-06-19T12:24:19;101228.56;;;31.88;23.66
80837;BME280;70251;60.008;30.404;2023-06-19T12:26:44;101228.69;;;31.72;23.60
80837;BME280;70251;60.008;30.404;2023-06-19T12:29:10;101220.69;;;31.70;23.32
80837;BME280;70251;60.008;30.404;2023-06-19T12:31:36;101221.72;;;31.64;23.53
80837;BME280;70251;60.008;30.404;2023-06-19T12:34:02;101215.88;;;31.61;23.38
80837;BME280;70251;60.008;30.404;2023-06-19T12:36:28;101217.97;;;31.49;23.54
80837;BME280;70251;60.008;30.404;2023-06-19T12:38:54;101218.59;;;31.56;23.52
80837;BME280;70251;60.008;30.404;2023-06-19T12:41:20;101220.25;;;31.57;23.49
80837;BME280;70251;60.008;30.404;2023-06-19T12:43:46;101214.06;;;31.45;23.74
80837;BME280;70251;60.008;30.404;2023-06-19T12:46:12;101211.59;;;31.21;23.83
80837;BME280;70251;60.008;30.404;2023-06-19T12:48:38;101213.63;;;31.09;24.24
80837;BME280;70251;60.008;30.404;2023-06-19T12:51:03;101210.94;;;31.14;23.94